createdAt,value
2022-08-08T00:00:59.564Z,15.19
2022-08-08T00:06:03.071Z,17.03
2022-08-08T00:11:17.808Z,19.73
2022-08-08T00:16:24.776Z,18.27
2022-08-08T00:21:39.651Z,16.85
2022-08-08T00:26:51.965Z,16.05
2022-08-08T00:32:28.583Z,17.28
2022-08-08T00:37:46.984Z,19.91
2022-08-08T00:43:19.664Z,18.11
2022-08-08T00:48:38.320Z,16.73
2022-08-08T00:54:13.432Z,15.88
2022-08-08T00:59:44.735Z,17.08
2022-08-08T01:05:41.814Z,19.72
2022-08-08T01:11:36.341Z,17.82
2022-08-08T01:16:58.897Z,16.26
2022-08-08T01:22:23.208Z,16.38
2022-08-08T01:27:50.279Z,19.44
2022-08-08T01:33:16.376Z,18.19
2022-08-08T01:38:54.474Z,16.27
2022-08-08T01:44:26.306Z,15.25
2022-08-08T01:49:53.629Z,16.69
2022-08-08T01:55:45.379Z,19.46
2022-08-08T02:00:48.592Z,17.94
2022-08-08T02:06:32.505Z,16.35
2022-08-08T02:11:59.245Z,17.48
2022-08-08T02:17:21.941Z,19.15
2022-08-08T02:22:53.001Z,17.00
2022-08-08T02:28:09.981Z,17.46
2022-08-08T02:34:00.508Z,18.94
2022-08-08T02:39:02.597Z,16.81
2022-08-08T02:44:37.275Z,15.69
2022-08-08T02:50:30.721Z,16.99
2022-08-08T02:55:57.870Z,19.54
2022-08-08T03:01:39.952Z,17.84
2022-08-08T03:07:02.044Z,16.16
2022-08-08T03:12:36.583Z,17.10
2022-08-08T03:18:13.618Z,19.92
2022-08-08T03:23:17.894Z,18.74
2022-08-08T03:28:56.000Z,16.75
2022-08-08T03:34:00.405Z,15.49
2022-08-08T03:39:15.080Z,16.47
2022-08-08T03:44:18.592Z,19.46
2022-08-08T03:49:58.519Z,19.39
2022-08-08T03:55:02.279Z,17.24
2022-08-08T04:00:18.231Z,16.05
2022-08-08T04:05:28.254Z,17.01
2022-08-08T04:10:33.020Z,19.80
2022-08-08T04:15:38.896Z,18.48
2022-08-08T04:20:41.960Z,16.83
2022-08-08T04:25:44.924Z,17.41
2022-08-08T04:30:49.532Z,19.95
2022-08-08T04:35:52.115Z,18.69
2022-08-08T04:40:55.088Z,17.16
2022-08-08T04:45:58.629Z,17.84
2022-08-08T04:51:01.343Z,20.43
2022-08-08T04:56:04.476Z,19.06
2022-08-08T05:01:09.551Z,17.81
2022-08-08T05:06:18.454Z,17.13
2022-08-08T05:11:39.399Z,18.35
2022-08-08T05:16:53.502Z,20.91
2022-08-08T05:22:05.319Z,19.46
2022-08-08T05:27:09.777Z,18.45
2022-08-08T05:32:12.685Z,19.65
2022-08-08T05:37:39.492Z,22.13
2022-08-08T05:42:52.814Z,21.08
2022-08-08T05:48:01.246Z,20.43
2022-08-08T05:53:54.800Z,20.14
2022-08-08T05:58:34.194Z,20.02
2022-08-08T06:03:43.678Z,20.14
2022-08-08T06:09:58.726Z,23.09
2022-08-08T06:14:29.202Z,23.40
2022-08-08T06:19:35.184Z,22.56
2022-08-08T06:24:38.143Z,22.32
2022-08-08T06:30:01.086Z,22.19
2022-08-08T06:35:30.579Z,22.17
2022-08-08T06:40:36.768Z,22.21
2022-08-08T06:45:40.732Z,22.26
2022-08-08T06:50:45.608Z,22.39
2022-08-08T06:56:00.662Z,22.55
2022-08-08T07:01:52.248Z,22.58
2022-08-08T07:06:34.147Z,22.54
2022-08-08T07:11:46.067Z,22.54
2022-08-08T07:17:09.580Z,22.79
2022-08-08T07:22:43.983Z,23.12
2022-08-08T07:28:02.780Z,23.44
2022-08-08T07:33:17.633Z,23.77
2022-08-08T07:38:25.757Z,23.89
2022-08-08T07:43:37.274Z,24.07
2022-08-08T07:48:40.878Z,24.27
2022-08-08T07:54:02.765Z,24.35
2022-08-08T07:59:14.855Z,24.32
2022-08-08T08:04:25.968Z,24.09
2022-08-08T08:09:37.562Z,23.70
2022-08-08T08:15:05.124Z,23.44
2022-08-08T08:20:10.348Z,23.22
2022-08-08T08:25:13.018Z,23.08
2022-08-08T08:30:19.851Z,23.06
2022-08-08T08:35:30.065Z,23.19
2022-08-08T08:40:48.711Z,23.31
2022-08-08T08:45:57.979Z,23.41
2022-08-08T08:51:10.183Z,23.38
2022-08-08T08:56:24.086Z,23.43
2022-08-08T09:01:32.182Z,23.54
2022-08-08T09:06:50.441Z,23.62
2022-08-08T09:12:02.328Z,23.90
2022-08-08T09:17:17.330Z,24.20
2022-08-08T09:22:26.799Z,24.43
2022-08-08T09:27:56.007Z,24.68
2022-08-08T09:33:54.777Z,24.93
2022-08-08T09:38:54.794Z,25.23
2022-08-08T09:44:15.204Z,25.55
2022-08-08T09:49:42.885Z,25.67
2022-08-08T09:54:45.786Z,25.37
2022-08-08T10:00:28.808Z,24.97
2022-08-08T10:05:22.964Z,24.52
2022-08-08T10:10:50.835Z,24.00
2022-08-08T10:16:00.614Z,23.62
2022-08-08T10:21:25.679Z,23.40
2022-08-08T10:26:59.686Z,23.27
2022-08-08T10:32:22.631Z,23.25
2022-08-08T10:37:34.467Z,23.46
2022-08-08T10:42:43.529Z,23.71
2022-08-08T10:47:55.583Z,23.84
2022-08-08T10:53:04.666Z,23.89
2022-08-08T10:58:11.821Z,23.90
2022-08-08T11:03:18.878Z,23.99
2022-08-08T11:08:53.285Z,24.06
2022-08-08T11:14:01.070Z,24.24
2022-08-08T11:19:05.251Z,24.55
2022-08-08T11:24:11.111Z,24.86
2022-08-08T11:29:16.129Z,25.14
2022-08-08T11:34:34.520Z,25.39
2022-08-08T11:39:57.190Z,25.56
2022-08-08T11:45:01.712Z,25.72
2022-08-08T11:50:09.941Z,25.98
2022-08-08T11:55:28.517Z,26.20
2022-08-08T12:00:31.637Z,26.36
2022-08-08T12:05:38.571Z,26.39
2022-08-08T12:10:52.473Z,26.24
2022-08-08T12:16:08.266Z,26.12
2022-08-08T12:21:25.892Z,25.95
2022-08-08T12:26:50.211Z,25.65
2022-08-08T12:32:09.643Z,25.45
2022-08-08T12:37:40.915Z,25.12
2022-08-08T12:42:48.609Z,24.85
2022-08-08T12:48:10.430Z,24.62
2022-08-08T12:53:38.020Z,24.34
2022-08-08T12:58:51.047Z,24.13
2022-08-08T13:03:53.972Z,24.04
2022-08-08T13:09:10.410Z,23.96
2022-08-08T13:14:15.507Z,23.94
2022-08-08T13:19:24.299Z,24.06
2022-08-08T13:24:38.571Z,24.22
2022-08-08T13:29:53.771Z,24.33
2022-08-08T13:34:58.116Z,24.41
2022-08-08T13:40:05.521Z,24.42
2022-08-08T13:45:12.471Z,24.46
2022-08-08T13:50:35.330Z,24.51
2022-08-08T13:55:42.854Z,24.53
2022-08-08T14:00:50.715Z,24.46
2022-08-08T14:06:00.469Z,24.43
2022-08-08T14:11:04.739Z,24.40
2022-08-08T14:16:16.417Z,24.31
2022-08-08T14:21:20.662Z,24.16
2022-08-08T14:26:28.337Z,24.05
2022-08-08T14:32:05.863Z,23.91
2022-08-08T14:36:54.690Z,23.76
2022-08-08T14:42:03.391Z,23.67
2022-08-08T14:47:21.208Z,23.58
2022-08-08T14:52:24.729Z,23.53
2022-08-08T14:58:03.269Z,23.51
2022-08-08T15:02:58.988Z,23.49
2022-08-08T15:08:22.111Z,23.43
2022-08-08T15:13:40.591Z,23.37
2022-08-08T15:19:00.625Z,23.37
2022-08-08T15:24:05.038Z,23.35
2022-08-08T15:29:15.679Z,23.35
2022-08-08T15:34:31.870Z,23.36
2022-08-08T15:39:37.594Z,23.42
2022-08-08T15:44:42.550Z,23.47
2022-08-08T15:49:47.605Z,23.55
2022-08-08T15:54:52.349Z,23.64
2022-08-08T16:00:05.100Z,23.73
2022-08-08T16:05:21.481Z,23.79
2022-08-08T16:13:11.361Z,23.74
2022-08-08T16:15:58.772Z,23.57
2022-08-08T16:21:03.655Z,23.34
2022-08-08T16:26:34.147Z,23.09
2022-08-08T16:31:44.769Z,22.92
2022-08-08T16:36:51.883Z,22.75
2022-08-08T16:42:00.872Z,22.59
2022-08-08T16:47:40.729Z,22.49
2022-08-08T16:55:00.737Z,22.37
2022-08-08T16:58:16.025Z,22.23
2022-08-08T17:03:25.029Z,22.07
2022-08-08T17:08:43.489Z,21.84
2022-08-08T17:14:00.688Z,21.64
2022-08-08T17:19:04.286Z,21.42
2022-08-08T17:24:10.021Z,21.15
2022-08-08T17:29:24.771Z,20.88
2022-08-08T17:34:54.039Z,20.65
2022-08-08T17:40:06.065Z,20.45
2022-08-08T17:45:22.193Z,20.28
2022-08-08T17:50:26.857Z,20.11
2022-08-08T17:56:06.352Z,19.98
2022-08-08T18:00:56.450Z,19.88
2022-08-08T18:06:00.493Z,19.78
2022-08-08T18:11:08.518Z,19.68
2022-08-08T18:16:17.213Z,19.59
2022-08-08T18:21:59.104Z,19.49
2022-08-08T18:26:54.542Z,19.40
2022-08-08T18:31:59.630Z,19.30
2022-08-08T18:37:06.620Z,19.21
2022-08-08T18:42:16.442Z,19.12
2022-08-08T18:47:20.599Z,19.04
2022-08-08T18:52:27.230Z,18.97
2022-08-08T18:57:31.949Z,18.90
2022-08-08T19:02:48.401Z,18.83
2022-08-08T19:08:00.087Z,18.76
2022-08-08T19:13:03.102Z,18.67
2022-08-08T19:18:33.167Z,18.61
2022-08-08T19:23:35.501Z,18.54
2022-08-08T19:28:38.404Z,18.47
2022-08-08T19:34:04.407Z,18.43
2022-08-08T19:39:09.431Z,18.36
2022-08-08T19:44:26.672Z,18.31
2022-08-08T19:49:37.844Z,19.97
2022-08-08T19:54:43.158Z,22.96
2022-08-08T19:59:46.506Z,22.23
2022-08-08T20:04:51.950Z,20.97
2022-08-08T20:09:57.086Z,20.31
2022-08-08T20:15:01.446Z,19.85
2022-08-08T20:20:09.533Z,19.46
2022-08-08T20:25:14.370Z,19.11
2022-08-08T20:30:52.503Z,18.78
2022-08-08T20:35:59.558Z,18.46
2022-08-08T20:41:17.095Z,18.20
2022-08-08T20:46:25.414Z,19.69
2022-08-08T20:51:32.484Z,22.69
2022-08-08T20:57:05.797Z,22.13
2022-08-08T21:02:06.075Z,20.63
2022-08-08T21:07:15.960Z,19.88
2022-08-08T21:12:19.514Z,19.29
2022-08-08T21:17:36.799Z,18.79
2022-08-08T21:22:39.568Z,19.87
2022-08-08T21:28:09.844Z,22.50
2022-08-08T21:33:08.136Z,21.19
2022-08-08T21:38:16.939Z,19.99
2022-08-08T21:43:20.840Z,19.31
2022-08-08T21:48:29.036Z,18.74
2022-08-08T21:54:33.968Z,18.18
2022-08-08T21:59:02.255Z,19.54
2022-08-08T22:04:11.014Z,22.25
2022-08-08T22:09:14.716Z,21.22
2022-08-08T22:14:20.072Z,19.70
2022-08-08T22:19:23.891Z,18.91
2022-08-08T22:24:28.638Z,21.17
2022-08-08T22:29:59.429Z,21.93
2022-08-08T22:34:54.710Z,19.96
2022-08-08T22:40:01.327Z,18.77
2022-08-08T22:45:12.097Z,19.55
2022-08-08T22:50:26.471Z,21.96
2022-08-08T22:55:31.129Z,20.45
2022-08-08T23:00:54.529Z,19.07
2022-08-08T23:06:00.052Z,19.74
2022-08-08T23:11:05.893Z,22.10
2022-08-08T23:16:38.538Z,20.61
2022-08-08T23:21:39.330Z,19.02
2022-08-08T23:26:42.244Z,19.61
2022-08-08T23:31:56.081Z,21.78
2022-08-08T23:36:58.847Z,20.11
2022-08-08T23:42:08.992Z,18.51
2022-08-08T23:48:59.633Z,19.19
2022-08-08T23:52:34.873Z,21.68
2022-08-08T23:57:39.196Z,20.22
